sensor_id;sensor_type;location;lat;lon;timestamp;temperature;humidity
14850;DHT22;7517;48.400;11.770;2023-05-14T00:01:23;15.40;84.80
14850;DHT22;7517;48.400;11.770;2023-05-14T00:03:50;15.40;84.80
14850;DHT22;7517;48.400;11.770;2023-05-14T00:06:17;15.50;84.90
14850;DHT22;7517;48.400;11.770;2023-05-14T00:08:47;15.50;84.90
14850;DHT22;7517;48.400;11.770;2023-05-14T00:11:14;15.50;84.90
14850;DHT22;7517;48.400;11.770;2023-05-14T00:13:42;15.50;84.80
14850;DHT22;7517;48.400;11.770;2023-05-14T00:16:09;15.50;84.70
14850;DHT22;7517;48.400;11.770;2023-05-14T00:18:37;15.50;84.90
14850;DHT22;7517;48.400;11.770;2023-05-14T00:21:04;15.50;84.90
14850;DHT22;7517;48.400;11.770;2023-05-14T00:23:31;15.50;84.90
14850;DHT22;7517;48.400;11.770;2023-05-14T00:26:00;15.50;85.00
14850;DHT22;7517;48.400;11.770;2023-05-14T00:28:27;15.50;84.90
14850;DHT22;7517;48.400;11.770;2023-05-14T00:30:55;15.50;84.90
14850;DHT22;7517;48.400;11.770;2023-05-14T00:33:22;15.60;84.90
14850;DHT22;7517;48.400;11.770;2023-05-14T00:35:49;15.60;84.90
14850;DHT22;7517;48.400;11.770;2023-05-14T00:38:17;15.60;84.80
14850;DHT22;7517;48.400;11.770;2023-05-14T00:40:44;15.60;84.70
14850;DHT22;7517;48.400;11.770;2023-05-14T00:43:17;15.60;84.70
14850;DHT22;7517;48.400;11.770;2023-05-14T00:45:45;15.60;84.70
14850;DHT22;7517;48.400;11.770;2023-05-14T00:48:13;15.60;84.60
14850;DHT22;7517;48.400;11.770;2023-05-14T00:50:41;15.60;84.60
14850;DHT22;7517;48.400;11.770;2023-05-14T00:53:08;15.60;84.60
14850;DHT22;7517;48.400;11.770;2023-05-14T00:55:37;15.60;84.70
14850;DHT22;7517;48.400;11.770;2023-05-14T00:58:06;15.60;84.60
14850;DHT22;7517;48.400;11.770;2023-05-14T01:00:38;15.60;84.70
14850;DHT22;7517;48.400;11.770;2023-05-14T01:03:07;15.60;84.50
14850;DHT22;7517;48.400;11.770;2023-05-14T01:05:40;15.60;84.50
14850;DHT22;7517;48.400;11.770;2023-05-14T01:08:20;15.60;84.40
14850;DHT22;7517;48.400;11.770;2023-05-14T01:10:59;15.60;84.30
14850;DHT22;7517;48.400;11.770;2023-05-14T01:13:38;15.60;84.20
14850;DHT22;7517;48.400;11.770;2023-05-14T01:16:12;15.60;84.10
14850;DHT22;7517;48.400;11.770;2023-05-14T01:18:42;15.60;84.10
14850;DHT22;7517;48.400;11.770;2023-05-14T01:21:28;15.60;84.10
14850;DHT22;7517;48.400;11.770;2023-05-14T01:23:59;15.60;83.90
14850;DHT22;7517;48.400;11.770;2023-05-14T01:26:27;15.60;84.10
14850;DHT22;7517;48.400;11.770;2023-05-14T01:29:00;15.60;84.10
14850;DHT22;7517;48.400;11.770;2023-05-14T01:31:35;15.60;84.30
14850;DHT22;7517;48.400;11.770;2023-05-14T01:34:05;15.60;84.10
14850;DHT22;7517;48.400;11.770;2023-05-14T01:36:38;15.50;84.00
14850;DHT22;7517;48.400;11.770;2023-05-14T01:39:07;15.50;84.10
14850;DHT22;7517;48.400;11.770;2023-05-14T01:41:36;15.50;84.10
14850;DHT22;7517;48.400;11.770;2023-05-14T01:44:05;15.50;84.10
14850;DHT22;7517;48.400;11.770;2023-05-14T01:46:32;15.50;84.10
14850;DHT22;7517;48.400;11.770;2023-05-14T01:49:00;15.50;84.20
14850;DHT22;7517;48.400;11.770;2023-05-14T01:51:27;15.50;84.20
14850;DHT22;7517;48.400;11.770;2023-05-14T01:53:56;15.50;84.10
14850;DHT22;7517;48.400;11.770;2023-05-14T01:56:23;15.50;83.90
14850;DHT22;7517;48.400;11.770;2023-05-14T01:58:51;15.50;83.80
14850;DHT22;7517;48.400;11.770;2023-05-14T02:01:20;15.50;83.90
14850;DHT22;7517;48.400;11.770;2023-05-14T02:03:48;15.50;83.90
14850;DHT22;7517;48.400;11.770;2023-05-14T02:06:15;15.50;83.80
14850;DHT22;7517;48.400;11.770;2023-05-14T02:08:42;15.50;83.70
14850;DHT22;7517;48.400;11.770;2023-05-14T02:11:11;15.50;83.80
14850;DHT22;7517;48.400;11.770;2023-05-14T02:13:39;15.50;84.00
14850;DHT22;7517;48.400;11.770;2023-05-14T02:16:06;15.50;84.10
14850;DHT22;7517;48.400;11.770;2023-05-14T02:18:34;15.50;84.00
14850;DHT22;7517;48.400;11.770;2023-05-14T02:21:01;15.50;84.10
14850;DHT22;7517;48.400;11.770;2023-05-14T02:23:28;15.50;84.20
14850;DHT22;7517;48.400;11.770;2023-05-14T02:25:56;15.50;84.00
14850;DHT22;7517;48.400;11.770;2023-05-14T02:28:25;15.50;84.00
14850;DHT22;7517;48.400;11.770;2023-05-14T02:30:57;15.50;83.80
14850;DHT22;7517;48.400;11.770;2023-05-14T02:33:25;15.50;83.70
14850;DHT22;7517;48.400;11.770;2023-05-14T02:35:52;15.50;83.80
14850;DHT22;7517;48.400;11.770;2023-05-14T02:38:20;15.50;83.90
14850;DHT22;7517;48.400;11.770;2023-05-14T02:40:48;15.50;84.00
14850;DHT22;7517;48.400;11.770;2023-05-14T02:43:15;15.50;83.90
14850;DHT22;7517;48.400;11.770;2023-05-14T02:45:44;15.50;84.00
14850;DHT22;7517;48.400;11.770;2023-05-14T02:48:11;15.50;83.80
14850;DHT22;7517;48.400;11.770;2023-05-14T02:50:38;15.50;83.80
14850;DHT22;7517;48.400;11.770;2023-05-14T02:53:06;15.50;83.90
14850;DHT22;7517;48.400;11.770;2023-05-14T02:55:34;15.50;84.10
14850;DHT22;7517;48.400;11.770;2023-05-14T02:58:02;15.50;83.90
14850;DHT22;7517;48.400;11.770;2023-05-14T03:00:29;15.50;83.80
14850;DHT22;7517;48.400;11.770;2023-05-14T03:02:57;15.50;83.80
14850;DHT22;7517;48.400;11.770;2023-05-14T03:05:25;15.50;84.00
14850;DHT22;7517;48.400;11.770;2023-05-14T03:07:52;15.50;84.10
14850;DHT22;7517;48.400;11.770;2023-05-14T03:10:19;15.50;84.10
14850;DHT22;7517;48.400;11.770;2023-05-14T03:12:47;15.50;84.00
14850;DHT22;7517;48.400;11.770;2023-05-14T03:15:14;15.50;84.10
14850;DHT22;7517;48.400;11.770;2023-05-14T03:17:41;15.50;84.20
14850;DHT22;7517;48.400;11.770;2023-05-14T03:20:11;15.50;84.10
14850;DHT22;7517;48.400;11.770;2023-05-14T03:22:39;15.60;83.90
14850;DHT22;7517;48.400;11.770;2023-05-14T03:25:06;15.60;84.00
14850;DHT22;7517;48.400;11.770;2023-05-14T03:27:34;15.60;83.80
14850;DHT22;7517;48.400;11.770;2023-05-14T03:30:02;15.60;83.80
14850;DHT22;7517;48.400;11.770;2023-05-14T03:32:29;15.60;83.70
14850;DHT22;7517;48.400;11.770;2023-05-14T03:34:57;15.60;83.70
14850;DHT22;7517;48.400;11.770;2023-05-14T03:37:26;15.60;83.80
14850;DHT22;7517;48.400;11.770;2023-05-14T03:39:53;15.60;83.80
14850;DHT22;7517;48.400;11.770;2023-05-14T03:42:20;15.60;83.60
14850;DHT22;7517;48.400;11.770;2023-05-14T03:44:47;15.60;83.50
14850;DHT22;7517;48.400;11.770;2023-05-14T03:47:14;15.60;83.60
14850;DHT22;7517;48.400;11.770;2023-05-14T03:49:42;15.60;83.50
14850;DHT22;7517;48.400;11.770;2023-05-14T03:52:09;15.50;83.40
14850;DHT22;7517;48.400;11.770;2023-05-14T03:54:38;15.50;83.40
14850;DHT22;7517;48.400;11.770;2023-05-14T03:57:06;15.50;83.30
14850;DHT22;7517;48.400;11.770;2023-05-14T03:59:33;15.50;83.20
14850;DHT22;7517;48.400;11.770;2023-05-14T04:02:00;15.50;83.40
14850;DHT22;7517;48.400;11.770;2023-05-14T04:04:27;15.50;83.40
14850;DHT22;7517;48.400;11.770;2023-05-14T04:06:54;15.50;83.50
14850;DHT22;7517;48.400;11.770;2023-05-14T04:09:22;15.50;83.60
14850;DHT22;7517;48.400;11.770;2023-05-14T04:11:50;15.50;83.60
14850;DHT22;7517;48.400;11.770;2023-05-14T04:14:17;15.50;83.80
14850;DHT22;7517;48.400;11.770;2023-05-14T04:16:45;15.50;83.80
14850;DHT22;7517;48.400;11.770;2023-05-14T04:19:12;15.50;84.60
14850;DHT22;7517;48.400;11.770;2023-05-14T04:21:39;15.50;84.00
14850;DHT22;7517;48.400;11.770;2023-05-14T04:24:07;15.50;84.20
14850;DHT22;7517;48.400;11.770;2023-05-14T04:26:34;15.60;84.30
14850;DHT22;7517;48.400;11.770;2023-05-14T04:29:02;15.60;85.00
14850;DHT22;7517;48.400;11.770;2023-05-14T04:31:31;15.60;84.40
14850;DHT22;7517;48.400;11.770;2023-05-14T04:33:59;15.60;84.40
14850;DHT22;7517;48.400;11.770;2023-05-14T04:36:26;15.60;84.40
14850;DHT22;7517;48.400;11.770;2023-05-14T04:38:53;15.60;84.40
14850;DHT22;7517;48.400;11.770;2023-05-14T04:41:20;15.70;84.20
14850;DHT22;7517;48.400;11.770;2023-05-14T04:43:49;15.70;84.20
14850;DHT22;7517;48.400;11.770;2023-05-14T04:46:17;15.70;84.10
14850;DHT22;7517;48.400;11.770;2023-05-14T04:48:45;15.70;84.10
14850;DHT22;7517;48.400;11.770;2023-05-14T04:51:12;15.70;84.10
14850;DHT22;7517;48.400;11.770;2023-05-14T04:53:40;15.70;84.10
14850;DHT22;7517;48.400;11.770;2023-05-14T04:56:07;15.70;84.00
14850;DHT22;7517;48.400;11.770;2023-05-14T04:58:35;15.70;83.80
14850;DHT22;7517;48.400;11.770;2023-05-14T05:01:03;15.70;83.60
14850;DHT22;7517;48.400;11.770;2023-05-14T05:03:33;15.70;83.40
14850;DHT22;7517;48.400;11.770;2023-05-14T05:06:00;15.70;83.30
14850;DHT22;7517;48.400;11.770;2023-05-14T05:08:28;15.70;83.40
14850;DHT22;7517;48.400;11.770;2023-05-14T05:10:55;15.70;83.50
14850;DHT22;7517;48.400;11.770;2023-05-14T05:13:22;15.70;83.10
14850;DHT22;7517;48.400;11.770;2023-05-14T05:15:49;15.70;83.00
14850;DHT22;7517;48.400;11.770;2023-05-14T05:18:17;15.70;83.10
14850;DHT22;7517;48.400;11.770;2023-05-14T05:20:45;15.70;83.10
14850;DHT22;7517;48.400;11.770;2023-05-14T05:23:13;15.70;83.20
14850;DHT22;7517;48.400;11.770;2023-05-14T05:25:40;15.70;83.10
14850;DHT22;7517;48.400;11.770;2023-05-14T05:28:07;15.70;83.20
14850;DHT22;7517;48.400;11.770;2023-05-14T05:30:34;15.70;83.20
14850;DHT22;7517;48.400;11.770;2023-05-14T05:33:01;15.70;83.30
14850;DHT22;7517;48.400;11.770;2023-05-14T05:35:29;15.70;82.90
14850;DHT22;7517;48.400;11.770;2023-05-14T05:37:58;15.70;82.70
14850;DHT22;7517;48.400;11.770;2023-05-14T05:40:25;15.70;82.40
14850;DHT22;7517;48.400;11.770;2023-05-14T05:42:52;15.70;82.60
14850;DHT22;7517;48.400;11.770;2023-05-14T05:45:20;15.70;82.70
14850;DHT22;7517;48.400;11.770;2023-05-14T05:47:47;15.70;82.70
14850;DHT22;7517;48.400;11.770;2023-05-14T05:50:14;15.70;82.60
14850;DHT22;7517;48.400;11.770;2023-05-14T05:52:41;15.70;82.50
14850;DHT22;7517;48.400;11.770;2023-05-14T05:55:10;15.70;82.70
14850;DHT22;7517;48.400;11.770;2023-05-14T05:57:38;15.70;82.60
14850;DHT22;7517;48.400;11.770;2023-05-14T06:00:06;15.70;82.40
14850;DHT22;7517;48.400;11.770;2023-05-14T06:02:39;15.70;82.50
14850;DHT22;7517;48.400;11.770;2023-05-14T06:05:14;15.70;82.40
14850;DHT22;7517;48.400;11.770;2023-05-14T06:07:41;15.70;82.60
14850;DHT22;7517;48.400;11.770;2023-05-14T06:10:10;15.70;82.90
14850;DHT22;7517;48.400;11.770;2023-05-14T06:12:37;15.70;82.90
14850;DHT22;7517;48.400;11.770;2023-05-14T06:15:05;15.70;82.70
14850;DHT22;7517;48.400;11.770;2023-05-14T06:17:33;15.70;82.50
14850;DHT22;7517;48.400;11.770;2023-05-14T06:20:06;15.70;82.60
14850;DHT22;7517;48.400;11.770;2023-05-14T06:22:34;15.80;82.60
14850;DHT22;7517;48.400;11.770;2023-05-14T06:25:02;15.80;82.60
14850;DHT22;7517;48.400;11.770;2023-05-14T06:27:32;15.80;82.50
14850;DHT22;7517;48.400;11.770;2023-05-14T06:30:00;15.90;82.50
14850;DHT22;7517;48.400;11.770;2023-05-14T06:32:28;15.90;82.40
14850;DHT22;7517;48.400;11.770;2023-05-14T06:34:55;15.90;82.50
14850;DHT22;7517;48.400;11.770;2023-05-14T06:37:23;15.90;82.50
14850;DHT22;7517;48.400;11.770;2023-05-14T06:40:01;15.90;82.60
14850;DHT22;7517;48.400;11.770;2023-05-14T06:42:28;16.00;82.20
14850;DHT22;7517;48.400;11.770;2023-05-14T06:44:58;16.00;82.50
14850;DHT22;7517;48.400;11.770;2023-05-14T06:47:26;16.00;82.40
14850;DHT22;7517;48.400;11.770;2023-05-14T06:49:54;16.00;82.50
14850;DHT22;7517;48.400;11.770;2023-05-14T06:52:23;16.10;82.60
14850;DHT22;7517;48.400;11.770;2023-05-14T06:54:52;16.10;82.50
14850;DHT22;7517;48.400;11.770;2023-05-14T06:57:34;16.10;82.40
14850;DHT22;7517;48.400;11.770;2023-05-14T07:00:04;16.10;81.80
14850;DHT22;7517;48.400;11.770;2023-05-14T07:02:33;16.20;82.30
14850;DHT22;7517;48.400;11.770;2023-05-14T07:05:00;16.20;82.60
14850;DHT22;7517;48.400;11.770;2023-05-14T07:07:28;16.20;82.70
14850;DHT22;7517;48.400;11.770;2023-05-14T07:09:55;16.30;82.70
14850;DHT22;7517;48.400;11.770;2023-05-14T07:12:22;16.30;82.60
14850;DHT22;7517;48.400;11.770;2023-05-14T07:14:50;16.30;82.60
14850;DHT22;7517;48.400;11.770;2023-05-14T07:17:19;16.40;82.60
14850;DHT22;7517;48.400;11.770;2023-05-14T07:19:46;16.40;82.40
14850;DHT22;7517;48.400;11.770;2023-05-14T07:22:13;16.50;82.60
14850;DHT22;7517;48.400;11.770;2023-05-14T07:24:41;16.50;82.80
14850;DHT22;7517;48.400;11.770;2023-05-14T07:27:09;16.60;82.90
14850;DHT22;7517;48.400;11.770;2023-05-14T07:29:37;16.70;82.90
14850;DHT22;7517;48.400;11.770;2023-05-14T07:32:04;16.80;82.80
14850;DHT22;7517;48.400;11.770;2023-05-14T07:34:32;16.90;82.40
14850;DHT22;7517;48.400;11.770;2023-05-14T07:37:00;17.00;82.20
14850;DHT22;7517;48.400;11.770;2023-05-14T07:39:28;17.00;82.00
14850;DHT22;7517;48.400;11.770;2023-05-14T07:41:55;17.10;82.00
14850;DHT22;7517;48.400;11.770;2023-05-14T07:44:22;17.20;81.90
14850;DHT22;7517;48.400;11.770;2023-05-14T07:46:50;17.30;81.90
14850;DHT22;7517;48.400;11.770;2023-05-14T07:49:17;17.40;81.90
14850;DHT22;7517;48.400;11.770;2023-05-14T07:51:46;17.50;81.60
14850;DHT22;7517;48.400;11.770;2023-05-14T07:54:13;17.50;81.20
14850;DHT22;7517;48.400;11.770;2023-05-14T07:56:42;17.60;81.10
14850;DHT22;7517;48.400;11.770;2023-05-14T07:59:10;17.60;80.80
14850;DHT22;7517;48.400;11.770;2023-05-14T08:01:37;17.70;80.20
14850;DHT22;7517;48.400;11.770;2023-05-14T08:04:05;17.70;79.40
14850;DHT22;7517;48.400;11.770;2023-05-14T08:06:32;17.70;79.10
14850;DHT22;7517;48.400;11.770;2023-05-14T08:09:01;17.70;78.40
14850;DHT22;7517;48.400;11.770;2023-05-14T08:11:29;17.70;78.00
14850;DHT22;7517;48.400;11.770;2023-05-14T08:13:57;17.70;78.20
14850;DHT22;7517;48.400;11.770;2023-05-14T08:16:24;17.60;78.00
14850;DHT22;7517;48.400;11.770;2023-05-14T08:18:51;17.60;77.90
14850;DHT22;7517;48.400;11.770;2023-05-14T08:21:18;17.60;78.10
14850;DHT22;7517;48.400;11.770;2023-05-14T08:23:46;17.60;78.30
14850;DHT22;7517;48.400;11.770;2023-05-14T08:26:14;17.60;78.50
14850;DHT22;7517;48.400;11.770;2023-05-14T08:28:42;17.60;78.70
14850;DHT22;7517;48.400;11.770;2023-05-14T08:31:11;17.70;78.90
14850;DHT22;7517;48.400;11.770;2023-05-14T08:33:40;17.70;79.00
14850;DHT22;7517;48.400;11.770;2023-05-14T08:36:07;17.80;79.10
14850;DHT22;7517;48.400;11.770;2023-05-14T08:38:35;17.90;79.20
14850;DHT22;7517;48.400;11.770;2023-05-14T08:41:05;18.00;79.30
14850;DHT22;7517;48.400;11.770;2023-05-14T08:43:43;18.00;78.60
14850;DHT22;7517;48.400;11.770;2023-05-14T08:46:24;18.10;78.10
14850;DHT22;7517;48.400;11.770;2023-05-14T08:49:04;18.20;78.80
14850;DHT22;7517;48.400;11.770;2023-05-14T08:51:40;18.20;78.00
14850;DHT22;7517;48.400;11.770;2023-05-14T08:54:09;18.30;78.20
14850;DHT22;7517;48.400;11.770;2023-05-14T08:56:40;18.30;78.10
14850;DHT22;7517;48.400;11.770;2023-05-14T08:59:10;18.30;78.20
14850;DHT22;7517;48.400;11.770;2023-05-14T09:01:40;18.40;78.10
14850;DHT22;7517;48.400;11.770;2023-05-14T09:04:10;18.40;78.10
14850;DHT22;7517;48.400;11.770;2023-05-14T09:06:39;18.40;77.80
14850;DHT22;7517;48.400;11.770;2023-05-14T09:09:08;18.50;77.70
14850;DHT22;7517;48.400;11.770;2023-05-14T09:11:40;18.50;77.80
14850;DHT22;7517;48.400;11.770;2023-05-14T09:14:09;18.60;77.80
14850;DHT22;7517;48.400;11.770;2023-05-14T09:16:37;18.60;77.20
14850;DHT22;7517;48.400;11.770;2023-05-14T09:19:07;18.70;77.10
14850;DHT22;7517;48.400;11.770;2023-05-14T09:21:35;18.80;77.20
14850;DHT22;7517;48.400;11.770;2023-05-14T09:24:03;18.90;77.30
14850;DHT22;7517;48.400;11.770;2023-05-14T09:26:31;18.90;77.40
14850;DHT22;7517;48.400;11.770;2023-05-14T09:29:00;19.00;77.30
14850;DHT22;7517;48.400;11.770;2023-05-14T09:31:30;19.00;76.90
14850;DHT22;7517;48.400;11.770;2023-05-14T09:33:59;19.00;76.40
14850;DHT22;7517;48.400;11.770;2023-05-14T09:36:26;19.10;76.20
14850;DHT22;7517;48.400;11.770;2023-05-14T09:38:56;19.10;76.20
14850;DHT22;7517;48.400;11.770;2023-05-14T09:41:23;19.10;76.10
14850;DHT22;7517;48.400;11.770;2023-05-14T09:43:51;19.10;76.20
14850;DHT22;7517;48.400;11.770;2023-05-14T09:46:19;19.10;75.60
14850;DHT22;7517;48.400;11.770;2023-05-14T09:48:47;19.10;75.40
14850;DHT22;7517;48.400;11.770;2023-05-14T09:51:16;19.10;75.60
14850;DHT22;7517;48.400;11.770;2023-05-14T09:53:44;19.10;75.10
14850;DHT22;7517;48.400;11.770;2023-05-14T09:56:12;19.10;75.20
14850;DHT22;7517;48.400;11.770;2023-05-14T09:58:39;19.10;75.10
14850;DHT22;7517;48.400;11.770;2023-05-14T10:01:07;19.00;74.90
14850;DHT22;7517;48.400;11.770;2023-05-14T10:03:35;19.10;75.00
14850;DHT22;7517;48.400;11.770;2023-05-14T10:06:05;19.00;74.80
14850;DHT22;7517;48.400;11.770;2023-05-14T10:08:35;19.10;74.50
14850;DHT22;7517;48.400;11.770;2023-05-14T10:11:12;19.10;75.00
14850;DHT22;7517;48.400;11.770;2023-05-14T10:13:51;19.10;74.00
14850;DHT22;7517;48.400;11.770;2023-05-14T10:16:26;19.10;74.20
14850;DHT22;7517;48.400;11.770;2023-05-14T10:18:59;19.10;74.40
14850;DHT22;7517;48.400;11.770;2023-05-14T10:21:34;19.10;74.40
14850;DHT22;7517;48.400;11.770;2023-05-14T10:24:03;19.10;74.80
14850;DHT22;7517;48.400;11.770;2023-05-14T10:26:34;19.10;75.20
14850;DHT22;7517;48.400;11.770;2023-05-14T10:29:05;19.10;75.10
14850;DHT22;7517;48.400;11.770;2023-05-14T10:31:46;19.10;74.80
14850;DHT22;7517;48.400;11.770;2023-05-14T10:34:31;19.10;74.40
14850;DHT22;7517;48.400;11.770;2023-05-14T10:37:04;19.10;73.80
14850;DHT22;7517;48.400;11.770;2023-05-14T10:39:40;19.10;75.00
14850;DHT22;7517;48.400;11.770;2023-05-14T10:42:12;19.10;74.80
14850;DHT22;7517;48.400;11.770;2023-05-14T10:44:50;19.20;74.90
14850;DHT22;7517;48.400;11.770;2023-05-14T10:47:19;19.20;73.70
14850;DHT22;7517;48.400;11.770;2023-05-14T10:49:46;19.20;74.50
14850;DHT22;7517;48.400;11.770;2023-05-14T10:52:17;19.30;74.50
14850;DHT22;7517;48.400;11.770;2023-05-14T10:54:48;19.30;74.10
14850;DHT22;7517;48.400;11.770;2023-05-14T10:57:17;19.40;74.40
14850;DHT22;7517;48.400;11.770;2023-05-14T10:59:49;19.40;74.30
14850;DHT22;7517;48.400;11.770;2023-05-14T11:02:24;19.50;73.70
14850;DHT22;7517;48.400;11.770;2023-05-14T11:04:57;19.50;73.10
14850;DHT22;7517;48.400;11.770;2023-05-14T11:07:30;19.50;72.40
14850;DHT22;7517;48.400;11.770;2023-05-14T11:10:01;19.50;72.60
14850;DHT22;7517;48.400;11.770;2023-05-14T11:12:30;19.50;72.30
14850;DHT22;7517;48.400;11.770;2023-05-14T11:14:59;19.50;72.50
14850;DHT22;7517;48.400;11.770;2023-05-14T11:17:29;19.50;72.50
14850;DHT22;7517;48.400;11.770;2023-05-14T11:19:58;19.50;72.60
14850;DHT22;7517;48.400;11.770;2023-05-14T11:22:25;19.50;72.40
14850;DHT22;7517;48.400;11.770;2023-05-14T11:24:54;19.50;72.70
14850;DHT22;7517;48.400;11.770;2023-05-14T11:27:22;19.50;72.60
14850;DHT22;7517;48.400;11.770;2023-05-14T11:29:49;19.60;73.20
14850;DHT22;7517;48.400;11.770;2023-05-14T11:32:17;19.60;73.50
14850;DHT22;7517;48.400;11.770;2023-05-14T11:34:45;19.60;73.50
14850;DHT22;7517;48.400;11.770;2023-05-14T11:37:13;19.70;73.10
14850;DHT22;7517;48.400;11.770;2023-05-14T11:39:46;19.70;72.30
14850;DHT22;7517;48.400;11.770;2023-05-14T11:42:16;19.80;71.30
14850;DHT22;7517;48.400;11.770;2023-05-14T11:44:45;19.80;72.10
14850;DHT22;7517;48.400;11.770;2023-05-14T11:47:14;19.90;71.60
14850;DHT22;7517;48.400;11.770;2023-05-14T11:49:42;19.90;71.40
14850;DHT22;7517;48.400;11.770;2023-05-14T11:52:12;19.90;71.80
14850;DHT22;7517;48.400;11.770;2023-05-14T11:54:44;19.90;71.80
14850;DHT22;7517;48.400;11.770;2023-05-14T11:57:12;19.90;71.80
14850;DHT22;7517;48.400;11.770;2023-05-14T11:59:43;20.00;71.60
14850;DHT22;7517;48.400;11.770;2023-05-14T12:02:12;20.00;71.00
14850;DHT22;7517;48.400;11.770;2023-05-14T12:04:41;20.10;71.00
14850;DHT22;7517;48.400;11.770;2023-05-14T12:07:10;20.20;70.90
14850;DHT22;7517;48.400;11.770;2023-05-14T12:09:40;20.10;70.80
14850;DHT22;7517;48.400;11.770;2023-05-14T12:12:14;20.20;71.10
14850;DHT22;7517;48.400;11.770;2023-05-14T12:14:44;20.20;71.60
14850;DHT22;7517;48.400;11.770;2023-05-14T12:17:13;20.30;71.70
14850;DHT22;7517;48.400;11.770;2023-05-14T12:19:42;20.30;71.40
14850;DHT22;7517;48.400;11.770;2023-05-14T12:22:11;20.40;71.60
14850;DHT22;7517;48.400;11.770;2023-05-14T12:24:42;20.40;70.70
14850;DHT22;7517;48.400;11.770;2023-05-14T12:27:10;20.50;70.70
14850;DHT22;7517;48.400;11.770;2023-05-14T12:29:39;20.50;70.90
14850;DHT22;7517;48.400;11.770;2023-05-14T12:32:08;20.60;71.00
14850;DHT22;7517;48.400;11.770;2023-05-14T12:34:37;20.60;70.70
14850;DHT22;7517;48.400;11.770;2023-05-14T12:37:04;20.70;70.80
14850;DHT22;7517;48.400;11.770;2023-05-14T12:39:33;20.70;70.60
14850;DHT22;7517;48.400;11.770;2023-05-14T12:42:01;20.70;70.20
14850;DHT22;7517;48.400;11.770;2023-05-14T12:44:28;20.70;70.20
14850;DHT22;7517;48.400;11.770;2023-05-14T12:46:56;20.70;70.20
14850;DHT22;7517;48.400;11.770;2023-05-14T12:49:25;20.70;70.10
14850;DHT22;7517;48.400;11.770;2023-05-14T12:51:52;20.70;69.80
14850;DHT22;7517;48.400;11.770;2023-05-14T12:54:19;20.70;69.90
14850;DHT22;7517;48.400;11.770;2023-05-14T12:56:47;20.70;69.50
14850;DHT22;7517;48.400;11.770;2023-05-14T12:59:14;20.70;69.20
14850;DHT22;7517;48.400;11.770;2023-05-14T13:01:42;20.60;69.30
14850;DHT22;7517;48.400;11.770;2023-05-14T13:04:09;20.60;69.60
14850;DHT22;7517;48.400;11.770;2023-05-14T13:06:40;20.60;69.80
14850;DHT22;7517;48.400;11.770;2023-05-14T13:09:07;20.60;69.50
14850;DHT22;7517;48.400;11.770;2023-05-14T13:11:34;20.70;69.50
14850;DHT22;7517;48.400;11.770;2023-05-14T13:14:02;20.70;68.80
14850;DHT22;7517;48.400;11.770;2023-05-14T13:16:29;20.70;68.80
14850;DHT22;7517;48.400;11.770;2023-05-14T13:18:57;20.80;68.90
14850;DHT22;7517;48.400;11.770;2023-05-14T13:21:24;20.80;68.50
14850;DHT22;7517;48.400;11.770;2023-05-14T13:23:53;20.80;68.60
14850;DHT22;7517;48.400;11.770;2023-05-14T13:26:20;20.80;68.20
14850;DHT22;7517;48.400;11.770;2023-05-14T13:28:50;20.80;68.50
14850;DHT22;7517;48.400;11.770;2023-05-14T13:31:18;20.70;68.50
14850;DHT22;7517;48.400;11.770;2023-05-14T13:33:46;20.70;68.60
14850;DHT22;7517;48.400;11.770;2023-05-14T13:36:14;20.70;68.40
14850;DHT22;7517;48.400;11.770;2023-05-14T13:38:41;20.70;68.70
14850;DHT22;7517;48.400;11.770;2023-05-14T13:41:11;20.70;68.40
14850;DHT22;7517;48.400;11.770;2023-05-14T13:43:39;20.80;67.90
14850;DHT22;7517;48.400;11.770;2023-05-14T13:46:06;20.80;68.40
14850;DHT22;7517;48.400;11.770;2023-05-14T13:48:34;20.80;68.40
14850;DHT22;7517;48.400;11.770;2023-05-14T13:51:02;20.90;68.40
14850;DHT22;7517;48.400;11.770;2023-05-14T13:53:29;20.80;68.40
14850;DHT22;7517;48.400;11.770;2023-05-14T13:55:57;20.90;68.80
14850;DHT22;7517;48.400;11.770;2023-05-14T13:58:27;20.90;68.60
14850;DHT22;7517;48.400;11.770;2023-05-14T14:00:55;20.90;68.30
14850;DHT22;7517;48.400;11.770;2023-05-14T14:03:22;20.90;68.40
14850;DHT22;7517;48.400;11.770;2023-05-14T14:05:49;20.90;68.20
14850;DHT22;7517;48.400;11.770;2023-05-14T14:08:17;20.90;67.90
14850;DHT22;7517;48.400;11.770;2023-05-14T14:10:45;20.90;67.70
14850;DHT22;7517;48.400;11.770;2023-05-14T14:13:12;20.90;67.50
14850;DHT22;7517;48.400;11.770;2023-05-14T14:15:41;20.90;66.90
14850;DHT22;7517;48.400;11.770;2023-05-14T14:18:09;20.90;66.90
14850;DHT22;7517;48.400;11.770;2023-05-14T14:20:36;21.00;67.30
14850;DHT22;7517;48.400;11.770;2023-05-14T14:23:04;21.00;67.10
14850;DHT22;7517;48.400;11.770;2023-05-14T14:25:31;20.90;66.30
14850;DHT22;7517;48.400;11.770;2023-05-14T14:27:59;21.00;65.90
14850;DHT22;7517;48.400;11.770;2023-05-14T14:30:26;20.90;66.50
14850;DHT22;7517;48.400;11.770;2023-05-14T14:32:55;21.00;66.30
14850;DHT22;7517;48.400;11.770;2023-05-14T14:35:25;20.90;65.60
14850;DHT22;7517;48.400;11.770;2023-05-14T14:37:53;20.90;66.10
14850;DHT22;7517;48.400;11.770;2023-05-14T14:40:21;20.90;66.20
14850;DHT22;7517;48.400;11.770;2023-05-14T14:42:51;21.00;66.50
14850;DHT22;7517;48.400;11.770;2023-05-14T14:45:18;21.00;66.10
14850;DHT22;7517;48.400;11.770;2023-05-14T14:47:47;21.00;66.20
14850;DHT22;7517;48.400;11.770;2023-05-14T14:50:16;21.10;66.90
14850;DHT22;7517;48.400;11.770;2023-05-14T14:52:44;21.10;67.00
14850;DHT22;7517;48.400;11.770;2023-05-14T14:55:12;21.20;67.70
14850;DHT22;7517;48.400;11.770;2023-05-14T14:57:40;21.20;67.50
14850;DHT22;7517;48.400;11.770;2023-05-14T15:00:10;21.30;67.60
14850;DHT22;7517;48.400;11.770;2023-05-14T15:02:38;21.30;67.00
14850;DHT22;7517;48.400;11.770;2023-05-14T15:05:08;21.30;66.90
14850;DHT22;7517;48.400;11.770;2023-05-14T15:07:39;21.30;66.70
14850;DHT22;7517;48.400;11.770;2023-05-14T15:10:08;21.30;66.80
14850;DHT22;7517;48.400;11.770;2023-05-14T15:12:35;21.30;67.50
14850;DHT22;7517;48.400;11.770;2023-05-14T15:15:03;21.20;68.70
14850;DHT22;7517;48.400;11.770;2023-05-14T15:17:31;21.10;69.40
14850;DHT22;7517;48.400;11.770;2023-05-14T15:19:58;21.00;70.00
14850;DHT22;7517;48.400;11.770;2023-05-14T15:22:26;20.90;70.20
14850;DHT22;7517;48.400;11.770;2023-05-14T15:24:55;20.60;71.10
14850;DHT22;7517;48.400;11.770;2023-05-14T15:27:22;20.40;72.00
14850;DHT22;7517;48.400;11.770;2023-05-14T15:29:50;20.20;72.90
14850;DHT22;7517;48.400;11.770;2023-05-14T15:32:19;19.90;73.70
14850;DHT22;7517;48.400;11.770;2023-05-14T15:34:46;19.60;74.20
14850;DHT22;7517;48.400;11.770;2023-05-14T15:37:14;19.30;74.90
14850;DHT22;7517;48.400;11.770;2023-05-14T15:39:41;19.10;75.80